sensor_id;sensor_type;location;lat;lon;timestamp;P1;durP1;ratioP1;P2;durP2;ratioP2
37529;SDS011;23374;52.758;6.872;2023-03-25T00:02:03;4.93;;;1.10;;
37529;SDS011;23374;52.758;6.872;2023-03-25T00:04:24;3.83;;;1.10;;
37529;SDS011;23374;52.758;6.872;2023-03-25T00:06:45;1.63;;;0.90;;
37529;SDS011;23374;52.758;6.872;2023-03-25T00:09:06;6.00;;;1.63;;
37529;SDS011;23374;52.758;6.872;2023-03-25T00:11:27;7.30;;;1.40;;
37529;SDS011;23374;52.758;6.872;2023-03-25T00:13:48;4.37;;;1.27;;
37529;SDS011;23374;52.758;6.872;2023-03-25T00:16:09;4.80;;;1.50;;
37529;SDS011;23374;52.758;6.872;2023-03-25T00:18:30;2.63;;;1.43;;
37529;SDS011;23374;52.758;6.872;2023-03-25T00:20:52;3.60;;;1.53;;
37529;SDS011;23374;52.758;6.872;2023-03-25T00:23:13;3.07;;;1.37;;
37529;SDS011;23374;52.758;6.872;2023-03-25T00:25:39;6.37;;;1.80;;
37529;SDS011;23374;52.758;6.872;2023-03-25T00:28:00;2.80;;;1.80;;
37529;SDS011;23374;52.758;6.872;2023-03-25T00:30:21;8.27;;;2.47;;
37529;SDS011;23374;52.758;6.872;2023-03-25T00:32:42;4.20;;;1.77;;
37529;SDS011;23374;52.758;6.872;2023-03-25T00:35:11;3.97;;;1.57;;
37529;SDS011;23374;52.758;6.872;2023-03-25T00:37:33;3.63;;;1.80;;
37529;SDS011;23374;52.758;6.872;2023-03-25T00:39:53;5.13;;;1.80;;
37529;SDS011;23374;52.758;6.872;2023-03-25T00:44:35;6.77;;;2.50;;
37529;SDS011;23374;52.758;6.872;2023-03-25T00:46:56;4.17;;;2.03;;
37529;SDS011;23374;52.758;6.872;2023-03-25T00:49:16;5.63;;;2.67;;
37529;SDS011;23374;52.758;6.872;2023-03-25T00:51:37;3.17;;;2.13;;
37529;SDS011;23374;52.758;6.872;2023-03-25T00:53:58;5.90;;;2.50;;
37529;SDS011;23374;52.758;6.872;2023-03-25T00:56:22;4.53;;;2.20;;
37529;SDS011;23374;52.758;6.872;2023-03-25T00:58:43;6.60;;;2.60;;
37529;SDS011;23374;52.758;6.872;2023-03-25T01:01:09;4.97;;;2.10;;
37529;SDS011;23374;52.758;6.872;2023-03-25T01:03:31;5.00;;;2.27;;
37529;SDS011;23374;52.758;6.872;2023-03-25T01:05:56;3.07;;;2.33;;
37529;SDS011;23374;52.758;6.872;2023-03-25T01:08:16;4.70;;;2.30;;
37529;SDS011;23374;52.758;6.872;2023-03-25T01:10:37;6.70;;;2.30;;
37529;SDS011;23374;52.758;6.872;2023-03-25T01:12:58;3.53;;;2.17;;
37529;SDS011;23374;52.758;6.872;2023-03-25T01:15:18;5.87;;;2.33;;
37529;SDS011;23374;52.758;6.872;2023-03-25T01:17:39;3.20;;;1.80;;
37529;SDS011;23374;52.758;6.872;2023-03-25T01:19:59;3.37;;;2.20;;
37529;SDS011;23374;52.758;6.872;2023-03-25T01:22:20;8.30;;;2.10;;
37529;SDS011;23374;52.758;6.872;2023-03-25T01:24:40;5.87;;;2.10;;
37529;SDS011;23374;52.758;6.872;2023-03-25T01:27:00;4.90;;;1.97;;
37529;SDS011;23374;52.758;6.872;2023-03-25T01:29:21;4.87;;;1.90;;
37529;SDS011;23374;52.758;6.872;2023-03-25T01:31:42;3.97;;;1.90;;
37529;SDS011;23374;52.758;6.872;2023-03-25T01:34:02;5.03;;;1.60;;
37529;SDS011;23374;52.758;6.872;2023-03-25T01:36:26;4.70;;;1.77;;
37529;SDS011;23374;52.758;6.872;2023-03-25T01:38:48;6.03;;;2.20;;
37529;SDS011;23374;52.758;6.872;2023-03-25T01:41:09;4.97;;;1.70;;
37529;SDS011;23374;52.758;6.872;2023-03-25T01:43:30;6.23;;;1.73;;
37529;SDS011;23374;52.758;6.872;2023-03-25T01:45:51;6.07;;;1.57;;
37529;SDS011;23374;52.758;6.872;2023-03-25T01:48:17;4.87;;;1.27;;
37529;SDS011;23374;52.758;6.872;2023-03-25T01:50:51;6.73;;;1.50;;
37529;SDS011;23374;52.758;6.872;2023-03-25T01:53:18;5.80;;;1.60;;
37529;SDS011;23374;52.758;6.872;2023-03-25T01:55:39;3.03;;;1.30;;
37529;SDS011;23374;52.758;6.872;2023-03-25T01:58:01;6.37;;;1.23;;
37529;SDS011;23374;52.758;6.872;2023-03-25T02:00:26;8.57;;;1.90;;
37529;SDS011;23374;52.758;6.872;2023-03-25T02:02:47;6.30;;;1.40;;
37529;SDS011;23374;52.758;6.872;2023-03-25T02:05:16;6.37;;;1.77;;
37529;SDS011;23374;52.758;6.872;2023-03-25T02:07:44;6.67;;;1.50;;
37529;SDS011;23374;52.758;6.872;2023-03-25T02:10:09;6.07;;;1.63;;
37529;SDS011;23374;52.758;6.872;2023-03-25T02:12:30;7.67;;;1.30;;
37529;SDS011;23374;52.758;6.872;2023-03-25T02:15:07;5.80;;;1.33;;
37529;SDS011;23374;52.758;6.872;2023-03-25T02:17:51;4.53;;;1.10;;
37529;SDS011;23374;52.758;6.872;2023-03-25T02:25:34;5.07;;;1.30;;
37529;SDS011;23374;52.758;6.872;2023-03-25T02:30:20;4.97;;;1.40;;
37529;SDS011;23374;52.758;6.872;2023-03-25T02:33:36;6.60;;;1.23;;
37529;SDS011;23374;52.758;6.872;2023-03-25T02:42:03;5.00;;;1.47;;
37529;SDS011;23374;52.758;6.872;2023-03-25T02:44:38;5.70;;;1.40;;
37529;SDS011;23374;52.758;6.872;2023-03-25T02:47:08;4.30;;;1.50;;
37529;SDS011;23374;52.758;6.872;2023-03-25T02:49:37;9.73;;;1.20;;
37529;SDS011;23374;52.758;6.872;2023-03-25T02:52:32;9.37;;;1.30;;
37529;SDS011;23374;52.758;6.872;2023-03-25T02:56:07;8.77;;;1.43;;
37529;SDS011;23374;52.758;6.872;2023-03-25T02:58:31;10.70;;;1.70;;
37529;SDS011;23374;52.758;6.872;2023-03-25T03:00:52;10.67;;;2.40;;
37529;SDS011;23374;52.758;6.872;2023-03-25T03:03:17;6.87;;;1.47;;
37529;SDS011;23374;52.758;6.872;2023-03-25T03:05:45;6.00;;;1.73;;
37529;SDS011;23374;52.758;6.872;2023-03-25T03:11:45;6.07;;;1.63;;
37529;SDS011;23374;52.758;6.872;2023-03-25T03:20:02;6.77;;;1.37;;
37529;SDS011;23374;52.758;6.872;2023-03-25T03:24:48;6.90;;;1.63;;
37529;SDS011;23374;52.758;6.872;2023-03-25T03:27:31;5.50;;;1.50;;
37529;SDS011;23374;52.758;6.872;2023-03-25T03:30:15;9.53;;;1.43;;
37529;SDS011;23374;52.758;6.872;2023-03-25T03:33:16;8.93;;;2.10;;
37529;SDS011;23374;52.758;6.872;2023-03-25T03:35:49;14.40;;;2.47;;
37529;SDS011;23374;52.758;6.872;2023-03-25T03:38:37;10.73;;;1.60;;
37529;SDS011;23374;52.758;6.872;2023-03-25T03:41:08;8.47;;;1.37;;
37529;SDS011;23374;52.758;6.872;2023-03-25T03:43:39;11.90;;;1.83;;
37529;SDS011;23374;52.758;6.872;2023-03-25T03:46:23;8.73;;;1.70;;
37529;SDS011;23374;52.758;6.872;2023-03-25T03:48:57;5.37;;;1.47;;
37529;SDS011;23374;52.758;6.872;2023-03-25T03:51:24;6.53;;;1.47;;
37529;SDS011;23374;52.758;6.872;2023-03-25T03:54:04;8.20;;;1.33;;
37529;SDS011;23374;52.758;6.872;2023-03-25T03:57:00;3.03;;;1.00;;
37529;SDS011;23374;52.758;6.872;2023-03-25T03:59:47;6.43;;;1.60;;
37529;SDS011;23374;52.758;6.872;2023-03-25T04:02:23;6.47;;;1.50;;
37529;SDS011;23374;52.758;6.872;2023-03-25T04:04:51;5.23;;;1.40;;
37529;SDS011;23374;52.758;6.872;2023-03-25T04:07:18;10.93;;;2.00;;
37529;SDS011;23374;52.758;6.872;2023-03-25T04:10:19;8.03;;;1.50;;
37529;SDS011;23374;52.758;6.872;2023-03-25T04:12:50;3.40;;;1.07;;
37529;SDS011;23374;52.758;6.872;2023-03-25T04:15:13;3.67;;;1.50;;
37529;SDS011;23374;52.758;6.872;2023-03-25T04:17:34;4.53;;;1.60;;
37529;SDS011;23374;52.758;6.872;2023-03-25T04:19:55;7.27;;;1.50;;
37529;SDS011;23374;52.758;6.872;2023-03-25T04:22:16;5.27;;;1.40;;
37529;SDS011;23374;52.758;6.872;2023-03-25T04:24:37;4.33;;;1.13;;
37529;SDS011;23374;52.758;6.872;2023-03-25T04:27:02;3.90;;;1.47;;
37529;SDS011;23374;52.758;6.872;2023-03-25T04:29:23;5.40;;;1.67;;
37529;SDS011;23374;52.758;6.872;2023-03-25T04:31:44;7.17;;;2.40;;
37529;SDS011;23374;52.758;6.872;2023-03-25T04:34:08;4.13;;;1.47;;
37529;SDS011;23374;52.758;6.872;2023-03-25T04:36:29;12.03;;;1.90;;
37529;SDS011;23374;52.758;6.872;2023-03-25T04:38:56;3.77;;;1.70;;
37529;SDS011;23374;52.758;6.872;2023-03-25T04:41:16;5.57;;;1.50;;
37529;SDS011;23374;52.758;6.872;2023-03-25T04:43:36;4.30;;;1.40;;
37529;SDS011;23374;52.758;6.872;2023-03-25T04:45:58;10.67;;;2.27;;
37529;SDS011;23374;52.758;6.872;2023-03-25T04:48:22;6.97;;;2.20;;
37529;SDS011;23374;52.758;6.872;2023-03-25T04:50:48;8.13;;;1.87;;
37529;SDS011;23374;52.758;6.872;2023-03-25T04:53:10;6.73;;;1.83;;
37529;SDS011;23374;52.758;6.872;2023-03-25T04:55:31;7.07;;;1.77;;
37529;SDS011;23374;52.758;6.872;2023-03-25T04:57:53;9.43;;;2.23;;
37529;SDS011;23374;52.758;6.872;2023-03-25T05:00:16;8.13;;;2.00;;
37529;SDS011;23374;52.758;6.872;2023-03-25T05:02:50;6.80;;;1.87;;
37529;SDS011;23374;52.758;6.872;2023-03-25T05:05:14;6.63;;;2.00;;
37529;SDS011;23374;52.758;6.872;2023-03-25T05:07:38;7.07;;;2.23;;
37529;SDS011;23374;52.758;6.872;2023-03-25T05:10:00;4.93;;;1.90;;
37529;SDS011;23374;52.758;6.872;2023-03-25T05:12:20;9.43;;;2.37;;
37529;SDS011;23374;52.758;6.872;2023-03-25T05:14:41;4.73;;;1.80;;
37529;SDS011;23374;52.758;6.872;2023-03-25T05:17:02;8.97;;;2.73;;
37529;SDS011;23374;52.758;6.872;2023-03-25T05:19:22;5.87;;;2.53;;
37529;SDS011;23374;52.758;6.872;2023-03-25T05:21:43;9.17;;;2.57;;
37529;SDS011;23374;52.758;6.872;2023-03-25T05:24:04;5.27;;;2.63;;
37529;SDS011;23374;52.758;6.872;2023-03-25T05:26:40;5.10;;;2.30;;
37529;SDS011;23374;52.758;6.872;2023-03-25T05:29:02;9.73;;;2.83;;
37529;SDS011;23374;52.758;6.872;2023-03-25T05:31:23;5.77;;;2.27;;
37529;SDS011;23374;52.758;6.872;2023-03-25T05:33:44;5.37;;;2.47;;
37529;SDS011;23374;52.758;6.872;2023-03-25T05:36:05;5.20;;;2.90;;
37529;SDS011;23374;52.758;6.872;2023-03-25T05:38:28;9.87;;;2.63;;
37529;SDS011;23374;52.758;6.872;2023-03-25T05:40:48;6.00;;;3.07;;
37529;SDS011;23374;52.758;6.872;2023-03-25T05:43:09;9.77;;;3.07;;
37529;SDS011;23374;52.758;6.872;2023-03-25T05:45:29;10.33;;;2.90;;
37529;SDS011;23374;52.758;6.872;2023-03-25T05:47:50;8.00;;;3.10;;
37529;SDS011;23374;52.758;6.872;2023-03-25T05:50:12;5.37;;;2.87;;
37529;SDS011;23374;52.758;6.872;2023-03-25T05:52:34;7.43;;;2.63;;
37529;SDS011;23374;52.758;6.872;2023-03-25T05:54:55;6.23;;;2.70;;
37529;SDS011;23374;52.758;6.872;2023-03-25T05:57:15;5.63;;;2.60;;
37529;SDS011;23374;52.758;6.872;2023-03-25T05:59:36;10.13;;;3.10;;
37529;SDS011;23374;52.758;6.872;2023-03-25T06:02:14;6.43;;;2.63;;
37529;SDS011;23374;52.758;6.872;2023-03-25T06:04:36;8.53;;;3.13;;
37529;SDS011;23374;52.758;6.872;2023-03-25T06:07:00;6.57;;;2.37;;
37529;SDS011;23374;52.758;6.872;2023-03-25T06:09:23;3.43;;;1.40;;
37529;SDS011;23374;52.758;6.872;2023-03-25T06:11:44;7.83;;;2.40;;
37529;SDS011;23374;52.758;6.872;2023-03-25T06:14:12;6.90;;;2.30;;
37529;SDS011;23374;52.758;6.872;2023-03-25T06:16:32;5.77;;;1.93;;
37529;SDS011;23374;52.758;6.872;2023-03-25T06:18:53;6.30;;;1.53;;
37529;SDS011;23374;52.758;6.872;2023-03-25T06:21:28;4.40;;;1.40;;
37529;SDS011;23374;52.758;6.872;2023-03-25T06:23:53;6.03;;;1.37;;
37529;SDS011;23374;52.758;6.872;2023-03-25T06:26:17;4.97;;;1.00;;
37529;SDS011;23374;52.758;6.872;2023-03-25T06:28:39;8.60;;;1.60;;
37529;SDS011;23374;52.758;6.872;2023-03-25T06:31:00;4.47;;;1.60;;
37529;SDS011;23374;52.758;6.872;2023-03-25T06:33:25;3.50;;;1.17;;
37529;SDS011;23374;52.758;6.872;2023-03-25T06:35:46;4.10;;;1.17;;
37529;SDS011;23374;52.758;6.872;2023-03-25T06:38:13;1.83;;;0.70;;
37529;SDS011;23374;52.758;6.872;2023-03-25T06:40:34;7.10;;;1.43;;
37529;SDS011;23374;52.758;6.872;2023-03-25T06:42:56;2.50;;;0.90;;
37529;SDS011;23374;52.758;6.872;2023-03-25T06:45:17;1.70;;;0.87;;
37529;SDS011;23374;52.758;6.872;2023-03-25T06:47:37;5.10;;;1.27;;
37529;SDS011;23374;52.758;6.872;2023-03-25T06:49:58;3.53;;;1.03;;
37529;SDS011;23374;52.758;6.872;2023-03-25T06:52:19;9.17;;;1.40;;
37529;SDS011;23374;52.758;6.872;2023-03-25T06:54:40;5.63;;;1.37;;
37529;SDS011;23374;52.758;6.872;2023-03-25T06:57:02;6.23;;;1.03;;
37529;SDS011;23374;52.758;6.872;2023-03-25T06:59:23;2.57;;;1.10;;
37529;SDS011;23374;52.758;6.872;2023-03-25T07:01:49;5.27;;;1.47;;
37529;SDS011;23374;52.758;6.872;2023-03-25T07:04:10;6.70;;;1.43;;
37529;SDS011;23374;52.758;6.872;2023-03-25T07:06:30;6.63;;;1.33;;
37529;SDS011;23374;52.758;6.872;2023-03-25T07:08:51;4.77;;;1.30;;
37529;SDS011;23374;52.758;6.872;2023-03-25T07:11:12;9.93;;;1.90;;
37529;SDS011;23374;52.758;6.872;2023-03-25T07:13:34;7.10;;;1.47;;
37529;SDS011;23374;52.758;6.872;2023-03-25T07:15:55;4.53;;;1.47;;
37529;SDS011;23374;52.758;6.872;2023-03-25T07:18:16;6.33;;;1.40;;
37529;SDS011;23374;52.758;6.872;2023-03-25T07:20:36;5.10;;;1.57;;
37529;SDS011;23374;52.758;6.872;2023-03-25T07:22:56;5.67;;;1.40;;
37529;SDS011;23374;52.758;6.872;2023-03-25T07:25:17;5.50;;;1.67;;
37529;SDS011;23374;52.758;6.872;2023-03-25T07:27:39;8.07;;;2.47;;
37529;SDS011;23374;52.758;6.872;2023-03-25T07:30:00;8.83;;;1.90;;
37529;SDS011;23374;52.758;6.872;2023-03-25T07:32:21;6.53;;;1.90;;
37529;SDS011;23374;52.758;6.872;2023-03-25T07:34:41;9.17;;;1.57;;
37529;SDS011;23374;52.758;6.872;2023-03-25T07:37:01;4.07;;;1.37;;
37529;SDS011;23374;52.758;6.872;2023-03-25T07:39:22;5.47;;;1.73;;
37529;SDS011;23374;52.758;6.872;2023-03-25T07:41:44;6.70;;;2.03;;
37529;SDS011;23374;52.758;6.872;2023-03-25T07:44:06;6.87;;;1.80;;
37529;SDS011;23374;52.758;6.872;2023-03-25T07:46:27;11.37;;;1.90;;
37529;SDS011;23374;52.758;6.872;2023-03-25T07:48:47;8.07;;;2.30;;
37529;SDS011;23374;52.758;6.872;2023-03-25T07:51:08;7.30;;;2.00;;
37529;SDS011;23374;52.758;6.872;2023-03-25T07:53:29;7.23;;;1.87;;
37529;SDS011;23374;52.758;6.872;2023-03-25T07:55:50;5.97;;;1.93;;
37529;SDS011;23374;52.758;6.872;2023-03-25T07:58:11;10.70;;;2.37;;
37529;SDS011;23374;52.758;6.872;2023-03-25T08:00:32;10.03;;;2.43;;
37529;SDS011;23374;52.758;6.872;2023-03-25T08:02:52;8.90;;;2.00;;
37529;SDS011;23374;52.758;6.872;2023-03-25T08:05:13;6.33;;;1.80;;
37529;SDS011;23374;52.758;6.872;2023-03-25T08:07:35;8.47;;;1.73;;
37529;SDS011;23374;52.758;6.872;2023-03-25T08:09:55;6.57;;;1.80;;
37529;SDS011;23374;52.758;6.872;2023-03-25T08:12:21;5.93;;;1.80;;
37529;SDS011;23374;52.758;6.872;2023-03-25T08:14:42;7.27;;;1.13;;
37529;SDS011;23374;52.758;6.872;2023-03-25T08:17:04;10.60;;;2.00;;
37529;SDS011;23374;52.758;6.872;2023-03-25T08:19:25;8.67;;;1.80;;
37529;SDS011;23374;52.758;6.872;2023-03-25T08:21:46;9.37;;;2.20;;
37529;SDS011;23374;52.758;6.872;2023-03-25T08:24:06;7.43;;;1.57;;
37529;SDS011;23374;52.758;6.872;2023-03-25T08:26:28;4.37;;;1.20;;
37529;SDS011;23374;52.758;6.872;2023-03-25T08:28:49;7.17;;;1.60;;
37529;SDS011;23374;52.758;6.872;2023-03-25T08:31:10;13.57;;;2.13;;
37529;SDS011;23374;52.758;6.872;2023-03-25T08:33:30;7.10;;;1.53;;
37529;SDS011;23374;52.758;6.872;2023-03-25T08:35:55;7.20;;;1.37;;
37529;SDS011;23374;52.758;6.872;2023-03-25T08:38:16;10.50;;;1.83;;
37529;SDS011;23374;52.758;6.872;2023-03-25T08:40:37;12.57;;;1.77;;
37529;SDS011;23374;52.758;6.872;2023-03-25T08:43:04;10.27;;;1.60;;
37529;SDS011;23374;52.758;6.872;2023-03-25T08:45:26;7.63;;;2.10;;
37529;SDS011;23374;52.758;6.872;2023-03-25T08:47:47;9.33;;;1.50;;
37529;SDS011;23374;52.758;6.872;2023-03-25T08:50:08;7.67;;;1.87;;
37529;SDS011;23374;52.758;6.872;2023-03-25T08:52:29;8.47;;;1.87;;
37529;SDS011;23374;52.758;6.872;2023-03-25T08:54:49;4.97;;;1.60;;
37529;SDS011;23374;52.758;6.872;2023-03-25T08:57:10;10.07;;;2.23;;
37529;SDS011;23374;52.758;6.872;2023-03-25T08:59:30;8.47;;;2.03;;
37529;SDS011;23374;52.758;6.872;2023-03-25T09:01:51;8.43;;;1.83;;
37529;SDS011;23374;52.758;6.872;2023-03-25T09:04:11;5.97;;;1.40;;
37529;SDS011;23374;52.758;6.872;2023-03-25T09:06:32;7.10;;;1.50;;
37529;SDS011;23374;52.758;6.872;2023-03-25T09:08:53;8.53;;;1.60;;
37529;SDS011;23374;52.758;6.872;2023-03-25T09:11:15;9.43;;;2.57;;
37529;SDS011;23374;52.758;6.872;2023-03-25T09:13:36;6.47;;;1.37;;
37529;SDS011;23374;52.758;6.872;2023-03-25T09:15:57;3.17;;;1.10;;
37529;SDS011;23374;52.758;6.872;2023-03-25T09:18:17;4.93;;;1.57;;
37529;SDS011;23374;52.758;6.872;2023-03-25T09:20:38;10.20;;;2.33;;
37529;SDS011;23374;52.758;6.872;2023-03-25T09:22:59;7.57;;;1.90;;
37529;SDS011;23374;52.758;6.872;2023-03-25T09:25:20;7.10;;;1.73;;
37529;SDS011;23374;52.758;6.872;2023-03-25T09:27:41;9.03;;;2.00;;
37529;SDS011;23374;52.758;6.872;2023-03-25T09:30:01;7.03;;;1.87;;
37529;SDS011;23374;52.758;6.872;2023-03-25T09:32:23;6.60;;;1.70;;
37529;SDS011;23374;52.758;6.872;2023-03-25T09:34:44;9.53;;;1.93;;
37529;SDS011;23374;52.758;6.872;2023-03-25T09:37:04;5.73;;;1.40;;
37529;SDS011;23374;52.758;6.872;2023-03-25T09:39:25;10.03;;;2.20;;
37529;SDS011;23374;52.758;6.872;2023-03-25T09:41:59;16.13;;;1.83;;
37529;SDS011;23374;52.758;6.872;2023-03-25T09:51:14;5.07;;;1.27;;
37529;SDS011;23374;52.758;6.872;2023-03-25T09:53:45;6.53;;;1.50;;
37529;SDS011;23374;52.758;6.872;2023-03-25T09:56:20;6.73;;;1.70;;
37529;SDS011;23374;52.758;6.872;2023-03-25T09:58:48;8.93;;;1.90;;
37529;SDS011;23374;52.758;6.872;2023-03-25T10:07:08;4.63;;;1.53;;
37529;SDS011;23374;52.758;6.872;2023-03-25T10:18:46;8.43;;;1.93;;
37529;SDS011;23374;52.758;6.872;2023-03-25T10:22:26;7.20;;;1.47;;
37529;SDS011;23374;52.758;6.872;2023-03-25T10:25:13;6.17;;;1.90;;
37529;SDS011;23374;52.758;6.872;2023-03-25T10:27:43;10.13;;;1.90;;
37529;SDS011;23374;52.758;6.872;2023-03-25T10:30:25;7.00;;;1.77;;
37529;SDS011;23374;52.758;6.872;2023-03-25T10:32:55;6.90;;;1.97;;
37529;SDS011;23374;52.758;6.872;2023-03-25T10:35:29;3.50;;;1.20;;
37529;SDS011;23374;52.758;6.872;2023-03-25T10:37:53;13.77;;;2.30;;
37529;SDS011;23374;52.758;6.872;2023-03-25T10:40:33;15.10;;;1.80;;
37529;SDS011;23374;52.758;6.872;2023-03-25T10:43:40;6.73;;;1.80;;
37529;SDS011;23374;52.758;6.872;2023-03-25T10:46:55;7.27;;;2.00;;
37529;SDS011;23374;52.758;6.872;2023-03-25T10:49:29;15.83;;;2.33;;
37529;SDS011;23374;52.758;6.872;2023-03-25T10:51:56;5.23;;;1.47;;
37529;SDS011;23374;52.758;6.872;2023-03-25T10:54:17;9.20;;;1.40;;
37529;SDS011;23374;52.758;6.872;2023-03-25T10:56:43;5.20;;;1.43;;
37529;SDS011;23374;52.758;6.872;2023-03-25T10:59:16;12.63;;;1.87;;
37529;SDS011;23374;52.758;6.872;2023-03-25T11:01:51;7.40;;;2.20;;
37529;SDS011;23374;52.758;6.872;2023-03-25T11:04:15;9.03;;;1.67;;
37529;SDS011;23374;52.758;6.872;2023-03-25T11:06:38;11.43;;;1.77;;
37529;SDS011;23374;52.758;6.872;2023-03-25T11:10:51;12.43;;;2.13;;
37529;SDS011;23374;52.758;6.872;2023-03-25T11:13:17;10.03;;;1.83;;
37529;SDS011;23374;52.758;6.872;2023-03-25T11:15:40;7.73;;;1.53;;
37529;SDS011;23374;52.758;6.872;2023-03-25T11:18:21;13.87;;;2.40;;
37529;SDS011;23374;52.758;6.872;2023-03-25T11:21:19;6.13;;;1.40;;
37529;SDS011;23374;52.758;6.872;2023-03-25T11:23:45;10.60;;;1.57;;
37529;SDS011;23374;52.758;6.872;2023-03-25T11:26:18;8.70;;;0.87;;
37529;SDS011;23374;52.758;6.872;2023-03-25T11:28:43;6.33;;;1.40;;
37529;SDS011;23374;52.758;6.872;2023-03-25T11:31:13;7.47;;;1.50;;
37529;SDS011;23374;52.758;6.872;2023-03-25T11:33:36;10.27;;;1.30;;
37529;SDS011;23374;52.758;6.872;2023-03-25T11:36:09;10.10;;;1.67;;
37529;SDS011;23374;52.758;6.872;2023-03-25T11:38:45;16.77;;;2.00;;
37529;SDS011;23374;52.758;6.872;2023-03-25T11:41:09;8.97;;;1.87;;
37529;SDS011;23374;52.758;6.872;2023-03-25T11:43:36;9.83;;;2.00;;
37529;SDS011;23374;52.758;6.872;2023-03-25T11:46:06;10.83;;;1.20;;
37529;SDS011;23374;52.758;6.872;2023-03-25T11:48:29;5.93;;;1.30;;
37529;SDS011;23374;52.758;6.872;2023-03-25T11:50:56;5.03;;;1.17;;
37529;SDS011;23374;52.758;6.872;2023-03-25T11:53:21;3.57;;;1.07;;
37529;SDS011;23374;52.758;6.872;2023-03-25T11:55:48;10.63;;;1.57;;
37529;SDS011;23374;52.758;6.872;2023-03-25T11:58:16;11.67;;;1.97;;
37529;SDS011;23374;52.758;6.872;2023-03-25T12:00:41;9.80;;;1.47;;
37529;SDS011;23374;52.758;6.872;2023-03-25T12:03:39;9.60;;;1.40;;
37529;SDS011;23374;52.758;6.872;2023-03-25T12:06:56;11.43;;;2.00;;
37529;SDS011;23374;52.758;6.872;2023-03-25T12:09:29;7.80;;;1.93;;
37529;SDS011;23374;52.758;6.872;2023-03-25T12:15:26;4.10;;;1.20;;
37529;SDS011;23374;52.758;6.872;2023-03-25T12:25:24;6.60;;;1.20;;
37529;SDS011;23374;52.758;6.872;2023-03-25T12:28:17;8.97;;;1.13;;
37529;SDS011;23374;52.758;6.872;2023-03-25T12:31:03;9.00;;;1.30;;
37529;SDS011;23374;52.758;6.872;2023-03-25T12:50:04;4.37;;;1.23;;
37529;SDS011;23374;52.758;6.872;2023-03-25T13:10:21;6.00;;;1.43;;
37529;SDS011;23374;52.758;6.872;2023-03-25T13:12:51;7.93;;;1.17;;
37529;SDS011;23374;52.758;6.872;2023-03-25T13:15:59;4.80;;;1.07;;
37529;SDS011;23374;52.758;6.872;2023-03-25T13:18:38;6.47;;;1.03;;
37529;SDS011;23374;52.758;6.872;2023-03-25T13:21:14;4.70;;;0.90;;
37529;SDS011;23374;52.758;6.872;2023-03-25T13:27:44;8.67;;;1.80;;
37529;SDS011;23374;52.758;6.872;2023-03-25T13:30:14;5.67;;;0.87;;
37529;SDS011;23374;52.758;6.872;2023-03-25T13:32:45;3.03;;;1.03;;
37529;SDS011;23374;52.758;6.872;2023-03-25T13:39:16;4.00;;;1.07;;
37529;SDS011;23374;52.758;6.872;2023-03-25T13:41:43;4.10;;;0.73;;
37529;SDS011;23374;52.758;6.872;2023-03-25T13:44:28;2.67;;;0.73;;
37529;SDS011;23374;52.758;6.872;2023-03-25T13:46:59;4.77;;;1.10;;
37529;SDS011;23374;52.758;6.872;2023-03-25T13:49:38;0.90;;;0.70;;
37529;SDS011;23374;52.758;6.872;2023-03-25T13:52:04;6.93;;;0.90;;
37529;SDS011;23374;52.758;6.872;2023-03-25T13:54:43;1.80;;;0.67;;
37529;SDS011;23374;52.758;6.872;2023-03-25T14:11:44;6.50;;;1.17;;
37529;SDS011;23374;52.758;6.872;2023-03-25T14:14:17;3.63;;;1.00;;
37529;SDS011;23374;52.758;6.872;2023-03-25T14:16:44;4.40;;;1.00;;
37529;SDS011;23374;52.758;6.872;2023-03-25T14:19:34;1.10;;;0.60;;
37529;SDS011;23374;52.758;6.872;2023-03-25T14:21:56;4.63;;;1.30;;
37529;SDS011;23374;52.758;6.872;2023-03-25T14:24:31;4.80;;;1.30;;
37529;SDS011;23374;52.758;6.872;2023-03-25T14:30:21;6.40;;;1.07;;
37529;SDS011;23374;52.758;6.872;2023-03-25T14:32:45;8.27;;;0.77;;
37529;SDS011;23374;52.758;6.872;2023-03-25T14:38:19;1.43;;;0.87;;
37529;SDS011;23374;52.758;6.872;2023-03-25T14:40:46;2.60;;;0.70;;
37529;SDS011;23374;52.758;6.872;2023-03-25T14:43:38;7.23;;;1.00;;
37529;SDS011;23374;52.758;6.872;2023-03-25T14:46:16;8.37;;;1.33;;
37529;SDS011;23374;52.758;6.872;2023-03-25T14:49:45;6.03;;;1.07;;
37529;SDS011;23374;52.758;6.872;2023-03-25T14:52:44;2.70;;;0.90;;
37529;SDS011;23374;52.758;6.872;2023-03-25T14:55:09;3.70;;;0.73;;
37529;SDS011;23374;52.758;6.872;2023-03-25T14:58:04;4.33;;;1.20;;
37529;SDS011;23374;52.758;6.872;2023-03-25T15:00:40;4.17;;;0.90;;
37529;SDS011;23374;52.758;6.872;2023-03-25T15:03:07;3.93;;;0.80;;
37529;SDS011;23374;52.758;6.872;2023-03-25T15:05:35;4.50;;;0.80;;
37529;SDS011;23374;52.758;6.872;2023-03-25T15:07:58;2.57;;;0.50;;
37529;SDS011;23374;52.758;6.872;2023-03-25T15:10:41;1.97;;;0.60;;
37529;SDS011;23374;52.758;6.872;2023-03-25T15:13:23;1.93;;;0.60;;
37529;SDS011;23374;52.758;6.872;2023-03-25T15:15:58;3.97;;;0.60;;
37529;SDS011;23374;52.758;6.872;2023-03-25T15:18:59;3.43;;;0.97;;
37529;SDS011;23374;52.758;6.872;2023-03-25T15:25:14;1.70;;;0.47;;
37529;SDS011;23374;52.758;6.872;2023-03-25T15:27:44;3.17;;;0.80;;
37529;SDS011;23374;52.758;6.872;2023-03-25T15:46:31;1.93;;;0.50;;
37529;SDS011;23374;52.758;6.872;2023-03-25T15:51:04;1.67;;;0.57;;
37529;SDS011;23374;52.758;6.872;2023-03-25T15:57:03;1.87;;;0.60;;
37529;SDS011;23374;52.758;6.872;2023-03-25T16:01:12;3.00;;;0.70;;
37529;SDS011;23374;52.758;6.872;2023-03-25T16:03:40;3.77;;;0.87;;
37529;SDS011;23374;52.758;6.872;2023-03-25T16:06:03;1.33;;;0.70;;
37529;SDS011;23374;52.758;6.872;2023-03-25T16:08:39;2.30;;;1.00;;
37529;SDS011;23374;52.758;6.872;2023-03-25T16:11:24;1.00;;;0.50;;
37529;SDS011;23374;52.758;6.872;2023-03-25T16:13:46;2.33;;;0.50;;
37529;SDS011;23374;52.758;6.872;2023-03-25T16:16:19;4.00;;;0.70;;
37529;SDS011;23374;52.758;6.872;2023-03-25T16:18:40;2.90;;;0.80;;
37529;SDS011;23374;52.758;6.872;2023-03-25T16:21:03;1.47;;;0.40;;
37529;SDS011;23374;52.758;6.872;2023-03-25T16:23:24;2.73;;;1.10;;
37529;SDS011;23374;52.758;6.872;2023-03-25T16:25:48;2.40;;;0.90;;
37529;SDS011;23374;52.758;6.872;2023-03-25T16:28:14;2.73;;;0.93;;
37529;SDS011;23374;52.758;6.872;2023-03-25T16:30:51;3.03;;;0.83;;
37529;SDS011;23374;52.758;6.872;2023-03-25T16:33:14;2.23;;;0.60;;
37529;SDS011;23374;52.758;6.872;2023-03-25T16:35:39;3.30;;;0.63;;
37529;SDS011;23374;52.758;6.872;2023-03-25T16:38:01;1.53;;;0.60;;
37529;SDS011;23374;52.758;6.872;2023-03-25T16:40:41;3.90;;;0.60;;
37529;SDS011;23374;52.758;6.872;2023-03-25T16:43:04;3.13;;;1.03;;
37529;SDS011;23374;52.758;6.872;2023-03-25T16:45:27;0.93;;;0.53;;
37529;SDS011;23374;52.758;6.872;2023-03-25T16:47:47;4.30;;;1.10;;
37529;SDS011;23374;52.758;6.872;2023-03-25T16:50:14;3.10;;;0.80;;
37529;SDS011;23374;52.758;6.872;2023-03-25T16:52:37;3.77;;;0.93;;
37529;SDS011;23374;52.758;6.872;2023-03-25T16:55:24;8.03;;;1.50;;
37529;SDS011;23374;52.758;6.872;2023-03-25T16:57:47;5.23;;;1.10;;
37529;SDS011;23374;52.758;6.872;2023-03-25T17:00:14;2.27;;;0.90;;
37529;SDS011;23374;52.758;6.872;2023-03-25T17:02:43;4.80;;;1.13;;
37529;SDS011;23374;52.758;6.872;2023-03-25T17:05:18;5.13;;;1.67;;
37529;SDS011;23374;52.758;6.872;2023-03-25T17:07:54;5.30;;;1.13;;
37529;SDS011;23374;52.758;6.872;2023-03-25T17:10:23;2.97;;;0.97;;
37529;SDS011;23374;52.758;6.872;2023-03-25T17:12:51;4.43;;;1.57;;
37529;SDS011;23374;52.758;6.872;2023-03-25T17:15:17;9.27;;;1.80;;
37529;SDS011;23374;52.758;6.872;2023-03-25T17:17:43;3.53;;;1.30;;
37529;SDS011;23374;52.758;6.872;2023-03-25T17:20:21;3.87;;;1.40;;
37529;SDS011;23374;52.758;6.872;2023-03-25T17:23:01;17.90;;;1.80;;